Time;durP1;ratioP1;P1;durP2;ratioP2;P2;SDS_P1;SDS_P2;PMS_P1;PMS_P2;Temp;Humidity;BMP_temperature;BMP_pressure;BME280_temperature;BME280_humidity;BME280_pressure;Samples;Min_cycle;Max_cycle;Signal;HPM_P1;HPM_P2
2023/01/05 00:02:03;;;;;;;8.23;5.40;;;;;8.50;94447.00;;;;7402460;19;20176;-72
2023/01/05 00:04:48;;;;;;;2.40;1.50;;;;;8.50;94448.00;;;;7401754;19;20175;-71
2023/01/05 00:07:22;;;;;;;2.57;1.80;;;;;8.50;94448.00;;;;7402385;19;20170;-71
2023/01/05 00:09:56;;;;;;;3.47;2.33;;;;;8.40;94449.00;;;;7404735;19;20196;-71
2023/01/05 00:23:40;;;;;;;9.40;5.07;;;;;8.30;94450.00;;;;7402392;19;20152;-74
2023/01/05 00:26:14;;;;;;;5.67;3.73;;;;;8.30;94447.00;;;;7400214;19;20159;-76
2023/01/05 00:28:42;;;;;;;1.00;0.77;;;;;8.40;94438.00;;;;7399762;19;20152;-73
2023/01/05 00:31:09;;;;;;;11.77;7.37;;;;;8.40;94441.00;;;;7403357;19;20188;-74
2023/01/05 00:33:43;;;;;;;2.33;1.77;;;;;8.40;94445.00;;;;7402233;19;20144;-73
2023/01/05 00:36:11;;;;;;;3.00;2.17;;;;;8.30;94441.00;;;;7401664;19;20137;-74
2023/01/05 00:38:42;;;;;;;4.07;3.23;;;;;8.40;94433.00;;;;7400028;19;20514;-74
2023/01/05 00:41:16;;;;;;;5.90;4.20;;;;;8.50;94438.00;;;;7403464;19;20587;-75
2023/01/05 00:43:43;;;;;;;0.70;0.70;;;;;8.50;94435.00;;;;7388568;19;20171;-74
2023/01/05 00:46:10;;;;;;;5.90;4.10;;;;;8.40;94420.00;;;;7390770;19;20157;-73
2023/01/05 00:48:45;;;;;;;1.13;0.90;;;;;8.40;94417.00;;;;7399865;19;20127;-74
2023/01/05 00:51:12;;;;;;;5.53;3.77;;;;;8.40;94413.00;;;;7402378;19;20117;-75
2023/01/05 00:53:39;;;;;;;11.33;4.60;;;;;8.50;94433.00;;;;7400548;19;20152;-75
2023/01/05 00:56:14;;;;;;;0.40;0.10;;;;;8.40;94409.00;;;;7396216;19;20160;-73
2023/01/05 00:58:41;;;;;;;0.10;0.10;;;;;8.30;94401.00;;;;7399701;19;20149;-75
2023/01/05 01:01:10;;;;;;;1.83;0.87;;;;;8.30;94394.00;;;;7402182;19;20133;-74
2023/01/05 01:03:46;;;;;;;5.73;2.87;;;;;8.40;94402.00;;;;7398528;19;20188;-73
2023/01/05 01:06:13;;;;;;;0.10;0.10;;;;;8.40;94412.00;;;;7400553;19;20155;-73
2023/01/05 01:08:41;;;;;;;0.17;0.17;;;;;8.50;94414.00;;;;7398271;19;20160;-72
2023/01/05 01:11:15;;;;;;;13.77;4.87;;;;;8.50;94402.00;;;;7399805;19;20191;-73
2023/01/05 01:13:47;;;;;;;33.10;7.47;;;;;8.50;94395.00;;;;7400912;19;20608;-74
2023/01/05 01:16:17;;;;;;;0.43;0.40;;;;;8.60;94410.00;;;;7400040;19;20704;-75
2023/01/05 01:18:51;;;;;;;3.70;2.10;;;;;8.50;94410.00;;;;7401810;19;20135;-74
2023/01/05 01:21:21;;;;;;;0.50;0.47;;;;;8.50;94422.00;;;;7402251;19;20133;-76
2023/01/05 01:23:49;;;;;;;0.20;0.20;;;;;8.60;94412.00;;;;7400139;19;20655;-74
2023/01/05 01:26:23;;;;;;;0.10;0.10;;;;;8.70;94411.00;;;;7400533;19;20152;-74
2023/01/05 01:28:50;;;;;;;0.37;0.20;;;;;8.70;94401.00;;;;7398100;19;20233;-77
2023/01/05 01:31:18;;;;;;;0.40;0.30;;;;;8.60;94400.00;;;;7396482;19;20196;-73
2023/01/05 01:33:52;;;;;;;0.10;0.10;;;;;8.60;94400.00;;;;7400753;19;20420;-73
2023/01/05 01:36:20;;;;;;;0.10;0.10;;;;;8.60;94408.00;;;;7399993;19;20137;-74
2023/01/05 01:38:47;;;;;;;0.10;0.10;;;;;8.60;94409.00;;;;7398811;19;20133;-74
2023/01/05 01:41:21;;;;;;;0.20;0.10;;;;;8.60;94396.00;;;;7398626;19;20145;-73
2023/01/05 01:43:51;;;;;;;0.20;0.20;;;;;8.60;94386.00;;;;7400540;19;20129;-75
2023/01/05 01:46:20;;;;;;;0.10;0.10;;;;;8.60;94387.00;;;;7398873;19;20133;-74
2023/01/05 01:49:10;;;;;;;0.10;0.10;;;;;8.60;94371.00;;;;7398509;19;20133;-75
2023/01/05 01:51:45;;;;;;;0.37;0.30;;;;;8.70;94374.00;;;;7398160;19;20125;-75
2023/01/05 01:54:19;;;;;;;0.20;0.20;;;;;8.70;94371.00;;;;7399114;19;20611;-75
2023/01/05 01:56:54;;;;;;;0.10;0.10;;;;;8.80;94380.00;;;;7398491;19;20611;-75
2023/01/05 01:59:28;;;;;;;0.10;0.10;;;;;8.70;94394.00;;;;7397853;19;20641;-73
2023/01/05 02:02:12;;;;;;;0.10;0.10;;;;;8.70;94366.00;;;;7394062;19;20196;-87
2023/01/05 02:04:46;;;;;;;0.17;0.17;;;;;8.80;94372.00;;;;7403760;19;20133;-86
2023/01/05 02:07:15;;;;;;;0.30;0.30;;;;;8.80;94362.00;;;;7402744;19;20129;-85
2023/01/05 02:09:54;;;;;;;0.10;0.10;;;;;8.80;94355.00;;;;7403449;19;20173;-85
2023/01/05 02:13:04;;;;;;;0.20;0.20;;;;;8.90;94354.00;;;;7406837;19;20123;-86
2023/01/05 02:15:43;;;;;;;0.47;0.30;;;;;8.90;94336.00;;;;7405648;19;20153;-86
2023/01/05 02:18:37;;;;;;;0.30;0.10;;;;;9.00;94344.00;;;;7407621;19;20141;-84
2023/01/05 02:21:20;;;;;;;0.33;0.20;;;;;8.90;94324.00;;;;7405704;19;20606;-86
2023/01/05 02:24:43;;;;;;;0.20;0.20;;;;;8.90;94340.00;;;;7406667;19;20153;-86
2023/01/05 02:27:46;;;;;;;0.10;0.10;;;;;8.90;94350.00;;;;7403731;19;20164;-84
2023/01/05 02:30:58;;;;;;;1.47;0.10;;;;;8.90;94357.00;;;;7408118;19;20464;-88
2023/01/05 02:33:55;;;;;;;0.10;0.10;;;;;8.90;94352.00;;;;7406011;19;20188;-84
2023/01/05 02:36:56;;;;;;;0.23;0.17;;;;;8.90;94340.00;;;;7405059;19;20142;-86
2023/01/05 02:39:49;;;;;;;0.30;0.10;;;;;8.80;94346.00;;;;7403827;19;20145;-87
2023/01/05 02:42:25;;;;;;;0.20;0.20;;;;;8.80;94335.00;;;;7403648;19;20594;-86
2023/01/05 02:44:54;;;;;;;0.00;0.00;;;;;8.80;94340.00;;;;7402890;19;20204;-86
2023/01/05 02:47:26;;;;;;;0.10;0.10;;;;;8.90;94339.00;;;;7401685;19;20143;-86
2023/01/05 02:50:23;;;;;;;0.07;0.07;;;;;8.80;94347.00;;;;7403608;19;20148;-84
2023/01/05 02:53:19;;;;;;;0.00;0.00;;;;;8.90;94351.00;;;;7406942;19;20136;-85
2023/01/05 02:56:09;;;;;;;0.17;0.17;;;;;8.90;94340.00;;;;7405915;19;20609;-88
2023/01/05 02:58:49;;;;;;;0.10;0.10;;;;;8.90;94345.00;;;;7404931;19;20165;-88
2023/01/05 03:01:31;;;;;;;0.00;0.00;;;;;8.90;94362.00;;;;7408648;19;20136;-87
2023/01/05 03:04:16;;;;;;;0.00;0.00;;;;;8.80;94361.00;;;;7411468;19;20172;-87
2023/01/05 03:07:04;;;;;;;0.00;0.00;;;;;8.80;94381.00;;;;7412842;19;20578;-87
2023/01/05 03:09:37;;;;;;;0.03;0.03;;;;;8.80;94342.00;;;;7416062;19;20503;-86
2023/01/05 03:15:31;;;;;;;0.10;0.10;;;;;8.80;94352.00;;;;7412978;19;20141;-86
2023/01/05 03:18:10;;;;;;;0.10;0.10;;;;;8.90;94353.00;;;;7412535;19;20149;-86
2023/01/05 03:20:43;;;;;;;0.80;0.20;;;;;8.80;94353.00;;;;7409085;19;20129;-84
2023/01/05 03:35:32;;;;;;;0.43;0.10;;;;;8.80;94375.00;;;;7412440;19;20153;-85
2023/01/05 03:38:11;;;;;;;0.17;0.13;;;;;8.90;94355.00;;;;7413727;19;20499;-87
2023/01/05 03:40:49;;;;;;;0.10;0.10;;;;;8.90;94354.00;;;;7411520;19;20179;-88
2023/01/05 03:43:17;;;;;;;0.07;0.07;;;;;8.90;94345.00;;;;7411935;19;20148;-88
2023/01/05 03:45:55;;;;;;;0.60;0.10;;;;;8.90;94355.00;;;;7413944;19;20128;-88
2023/01/05 03:48:26;;;;;;;0.07;0.07;;;;;9.00;94350.00;;;;7413341;19;20167;-87
2023/01/05 03:51:00;;;;;;;0.10;0.10;;;;;9.00;94359.00;;;;7413487;19;20140;-88
2023/01/05 03:53:27;;;;;;;0.00;0.00;;;;;9.00;94358.00;;;;7414394;19;20168;-89
2023/01/05 03:55:55;;;;;;;0.20;0.20;;;;;9.10;94347.00;;;;7411581;19;20180;-89
2023/01/05 03:58:30;;;;;;;0.00;0.00;;;;;9.10;94342.00;;;;7413118;19;20485;-88
2023/01/05 04:00:57;;;;;;;0.00;0.00;;;;;9.10;94342.00;;;;7412617;19;20503;-89
2023/01/05 04:03:25;;;;;;;0.43;0.10;;;;;9.10;94338.00;;;;7410396;19;20172;-87
2023/01/05 04:06:06;;;;;;;0.10;0.10;;;;;9.10;94338.00;;;;7410019;19;20552;-87
2023/01/05 04:08:34;;;;;;;0.10;0.10;;;;;9.20;94345.00;;;;7409125;19;20144;-86
2023/01/05 04:11:23;;;;;;;0.23;0.20;;;;;9.20;94352.00;;;;7411205;19;20151;-88
2023/01/05 04:13:52;;;;;;;1.60;0.10;;;;;9.10;94345.00;;;;7406334;19;20152;-88
2023/01/05 04:16:27;;;;;;;0.00;0.00;;;;;9.10;94351.00;;;;7411951;19;20509;-88
2023/01/05 04:18:55;;;;;;;0.67;0.10;;;;;9.10;94367.00;;;;7410701;19;20157;-87
2023/01/05 04:21:22;;;;;;;0.10;0.10;;;;;9.10;94360.00;;;;7411617;19;20129;-89
2023/01/05 04:23:57;;;;;;;0.10;0.00;;;;;9.10;94361.00;;;;7411532;19;20134;-87
2023/01/05 04:26:24;;;;;;;0.87;0.20;;;;;9.10;94383.00;;;;7409365;19;20185;-88
2023/01/05 04:28:53;;;;;;;0.00;0.00;;;;;9.10;94351.00;;;;7410583;19;20148;-88
2023/01/05 04:31:32;;;;;;;0.00;0.00;;;;;9.20;94342.00;;;;7410854;19;20144;-88
2023/01/05 04:33:59;;;;;;;0.07;0.07;;;;;9.20;94361.00;;;;7409767;19;20155;-86
2023/01/05 04:36:27;;;;;;;0.00;0.00;;;;;9.20;94362.00;;;;7410744;19;20467;-88
2023/01/05 04:39:01;;;;;;;0.13;0.10;;;;;9.20;94361.00;;;;7408830;19;20151;-88
2023/01/05 04:41:29;;;;;;;0.00;0.00;;;;;9.30;94361.00;;;;7409837;19;20144;-89
2023/01/05 04:43:57;;;;;;;0.10;0.10;;;;;9.20;94380.00;;;;7410905;19;20151;-87
2023/01/05 04:46:31;;;;;;;0.00;0.00;;;;;9.10;94382.00;;;;7411081;19;20135;-86
2023/01/05 04:48:59;;;;;;;1.10;0.10;;;;;9.20;94380.00;;;;7410405;19;20162;-88
2023/01/05 04:51:29;;;;;;;0.00;0.00;;;;;9.00;94368.00;;;;7411060;19;20476;-88
2023/01/05 04:54:04;;;;;;;0.10;0.07;;;;;9.00;94366.00;;;;7409227;19;20144;-86
2023/01/05 04:56:32;;;;;;;0.10;0.10;;;;;9.00;94372.00;;;;7412090;19;20157;-86
2023/01/05 04:59:02;;;;;;;0.30;0.10;;;;;9.00;94380.00;;;;7409227;19;20216;-87
2023/01/05 05:01:38;;;;;;;0.70;0.33;;;;;8.80;94373.00;;;;7409126;19;20171;-87
2023/01/05 05:04:12;;;;;;;0.10;0.10;;;;;8.80;94375.00;;;;7406639;19;20164;-85
2023/01/05 05:06:48;;;;;;;0.00;0.00;;;;;8.70;94368.00;;;;7408034;19;20153;-87
2023/01/05 05:09:15;;;;;;;0.00;0.00;;;;;8.60;94379.00;;;;7407633;19;20129;-85
2023/01/05 05:11:43;;;;;;;0.10;0.10;;;;;8.80;94384.00;;;;7408646;19;20153;-86
2023/01/05 05:14:17;;;;;;;0.00;0.00;;;;;8.70;94381.00;;;;7407942;19;20159;-86
2023/01/05 05:16:44;;;;;;;0.00;0.00;;;;;8.50;94385.00;;;;7407511;19;20443;-86
2023/01/05 05:19:12;;;;;;;0.00;0.00;;;;;8.50;94383.00;;;;7407648;19;20129;-86
2023/01/05 05:21:46;;;;;;;0.00;0.00;;;;;8.40;94394.00;;;;7408333;19;20125;-84
2023/01/05 05:24:13;;;;;;;0.00;0.00;;;;;8.40;94386.00;;;;7408211;19;20133;-84
2023/01/05 05:26:41;;;;;;;0.00;0.00;;;;;8.40;94390.00;;;;7406041;19;20149;-85
2023/01/05 05:29:15;;;;;;;0.00;0.00;;;;;8.50;94387.00;;;;7407660;19;20165;-86
2023/01/05 05:31:42;;;;;;;0.00;0.00;;;;;8.40;94397.00;;;;7407612;19;20180;-85
2023/01/05 05:34:10;;;;;;;0.40;0.00;;;;;8.60;94385.00;;;;7407621;19;20157;-87
2023/01/05 05:36:44;;;;;;;0.00;0.00;;;;;8.40;94406.00;;;;7409096;19;20144;-86
2023/01/05 05:39:13;;;;;;;0.10;0.03;;;;;8.30;94403.00;;;;7406076;19;20168;-85
2023/01/05 05:41:40;;;;;;;0.83;0.03;;;;;8.30;94396.00;;;;7408261;19;20145;-85
2023/01/05 05:44:15;;;;;;;0.07;0.00;;;;;8.30;94414.00;;;;7409032;19;20219;-87
2023/01/05 05:46:42;;;;;;;0.00;0.00;;;;;8.30;94411.00;;;;7406392;19;20157;-84
2023/01/05 05:49:12;;;;;;;0.00;0.00;;;;;8.30;94421.00;;;;7404543;19;20152;-85
2023/01/05 05:51:46;;;;;;;0.00;0.00;;;;;8.20;94421.00;;;;7405759;19;20121;-83
2023/01/05 05:54:15;;;;;;;0.10;0.00;;;;;8.30;94413.00;;;;7404073;19;20179;-87
2023/01/05 05:56:42;;;;;;;0.00;0.00;;;;;8.10;94447.00;;;;7405869;19;20141;-85
2023/01/05 05:59:18;;;;;;;1.13;0.20;;;;;8.10;94428.00;;;;7405364;19;20167;-86
2023/01/05 06:01:52;;;;;;;0.10;0.10;;;;;8.20;94438.00;;;;7394684;19;20215;-79
2023/01/05 06:04:33;;;;;;;1.13;0.60;;;;;8.00;94425.00;;;;7396374;19;20137;-79
2023/01/05 06:07:01;;;;;;;0.90;0.60;;;;;8.10;94447.00;;;;7394808;19;20153;-79
2023/01/05 06:09:35;;;;;;;1.23;0.80;;;;;7.80;94436.00;;;;7400436;19;20456;-80
2023/01/05 06:12:03;;;;;;;1.53;1.10;;;;;7.80;94446.00;;;;7399068;19;20145;-81
2023/01/05 06:14:31;;;;;;;2.30;1.13;;;;;7.80;94459.00;;;;7399873;19;20184;-80
2023/01/05 06:17:05;;;;;;;1.00;0.97;;;;;7.70;94457.00;;;;7398026;19;20157;-79
2023/01/05 06:19:33;;;;;;;2.27;1.00;;;;;7.70;94427.00;;;;7398723;19;20506;-81
2023/01/05 06:22:05;;;;;;;3.20;0.90;;;;;7.70;94459.00;;;;7399145;19;20133;-82
2023/01/05 06:24:40;;;;;;;3.37;0.90;;;;;7.80;94465.00;;;;7398032;19;20173;-81
2023/01/05 06:27:07;;;;;;;1.53;0.80;;;;;7.70;94446.00;;;;7397389;19;20149;-80
2023/01/05 06:29:35;;;;;;;1.90;0.70;;;;;7.70;94452.00;;;;7397209;19;20639;-80
2023/01/05 06:32:09;;;;;;;2.83;1.10;;;;;7.70;94465.00;;;;7393920;19;20608;-79
2023/01/05 06:34:36;;;;;;;0.80;0.80;;;;;7.70;94464.00;;;;7395211;19;20169;-79
2023/01/05 06:37:05;;;;;;;0.70;0.67;;;;;7.60;94480.00;;;;7392071;19;20125;-79
2023/01/05 06:39:39;;;;;;;1.13;0.70;;;;;7.70;94480.00;;;;7394068;19;20143;-80
2023/01/05 06:42:06;;;;;;;0.90;0.67;;;;;7.60;94470.00;;;;7394071;19;20192;-79
2023/01/05 06:44:34;;;;;;;2.33;1.20;;;;;7.60;94479.00;;;;7390490;19;20622;-79
2023/01/05 06:47:09;;;;;;;2.03;1.50;;;;;7.60;94466.00;;;;7391549;19;20152;-79
2023/01/05 06:49:36;;;;;;;3.23;1.20;;;;;7.50;94489.00;;;;7394082;19;20149;-79
2023/01/05 06:52:10;;;;;;;3.80;1.30;;;;;7.40;94482.00;;;;7383320;19;20639;-80
2023/01/05 06:54:45;;;;;;;3.27;1.60;;;;;7.60;94492.00;;;;7390928;19;20227;-80
2023/01/05 06:57:15;;;;;;;6.70;1.60;;;;;7.40;94485.00;;;;7393332;19;20445;-79
2023/01/05 06:59:42;;;;;;;2.10;1.43;;;;;7.50;94477.00;;;;7393780;19;20607;-80
2023/01/05 07:02:47;;;;;;;4.10;1.40;;;;;7.50;94500.00;;;;7392544;19;20176;-81
2023/01/05 07:05:15;;;;;;;4.03;1.50;;;;;7.40;94495.00;;;;7393787;19;20132;-80
2023/01/05 07:07:50;;;;;;;5.23;1.60;;;;;7.50;94488.00;;;;7393478;19;20121;-80
2023/01/05 07:10:20;;;;;;;4.00;1.77;;;;;7.40;94499.00;;;;7393324;19;20611;-82
2023/01/05 07:12:47;;;;;;;5.20;1.63;;;;;7.60;94499.00;;;;7394273;19;20228;-82
2023/01/05 07:15:23;;;;;;;10.33;2.00;;;;;7.50;94498.00;;;;7392088;19;20183;-80
2023/01/05 07:17:51;;;;;;;6.50;1.80;;;;;7.50;94509.00;;;;7392371;19;20616;-81
2023/01/05 07:20:19;;;;;;;5.13;2.83;;;;;7.40;94505.00;;;;7387119;19;20157;-80
2023/01/05 07:22:53;;;;;;;6.70;2.10;;;;;7.30;94518.00;;;;7388608;19;20148;-81
2023/01/05 07:25:21;;;;;;;4.10;1.77;;;;;7.40;94509.00;;;;7390431;19;20183;-81
2023/01/05 07:27:52;;;;;;;15.00;2.43;;;;;7.30;94500.00;;;;7383081;19;20139;-82
2023/01/05 07:30:27;;;;;;;10.17;2.00;;;;;7.40;94517.00;;;;7393403;19;20819;-82
2023/01/05 07:32:59;;;;;;;5.03;1.83;;;;;7.40;94517.00;;;;7393910;19;20180;-82
2023/01/05 07:35:34;;;;;;;10.67;2.17;;;;;7.30;94503.00;;;;7395471;19;20635;-81
2023/01/05 07:38:02;;;;;;;9.07;2.20;;;;;7.40;94512.00;;;;7393044;19;20148;-81
2023/01/05 07:40:30;;;;;;;7.90;3.03;;;;;7.70;94517.00;;;;7394835;19;20136;-81
2023/01/05 07:43:04;;;;;;;7.73;2.50;;;;;7.40;94517.00;;;;7393211;19;20157;-80
2023/01/05 07:45:32;;;;;;;10.20;2.07;;;;;7.40;94517.00;;;;7395249;19;20140;-82
2023/01/05 07:48:01;;;;;;;8.77;2.17;;;;;7.40;94515.00;;;;7398039;19;20829;-82
2023/01/05 07:50:36;;;;;;;9.93;2.47;;;;;7.40;94515.00;;;;7402283;19;20618;-81
2023/01/05 07:53:06;;;;;;;6.83;2.13;;;;;7.30;94526.00;;;;7401884;19;20161;-84
2023/01/05 07:55:34;;;;;;;10.27;2.10;;;;;7.40;94521.00;;;;7402588;19;20619;-80
2023/01/05 07:58:09;;;;;;;8.07;2.27;;;;;7.30;94529.00;;;;7403336;19;20515;-81
2023/01/05 08:00:36;;;;;;;10.73;2.27;;;;;7.40;94521.00;;;;7400987;19;20133;-79
2023/01/05 08:03:04;;;;;;;9.00;2.40;;;;;7.30;94544.00;;;;7397427;19;20172;-80
2023/01/05 08:05:46;;;;;;;10.80;2.23;;;;;7.30;94543.00;;;;7397361;19;20153;-83
2023/01/05 08:08:14;;;;;;;8.03;2.13;;;;;7.40;94546.00;;;;7399639;19;20603;-79
2023/01/05 08:10:51;;;;;;;8.33;1.80;;;;;7.20;94553.00;;;;7400542;19;20149;-81
2023/01/05 08:16:18;;;;;;;12.27;2.30;;;;;7.10;94560.00;;;;7400840;19;20154;-84
2023/01/05 08:18:45;;;;;;;12.83;2.70;;;;;7.00;94554.00;;;;7403005;19;20539;-85
2023/01/05 08:21:19;;;;;;;15.33;2.90;;;;;7.20;94559.00;;;;7399295;19;20144;-84
2023/01/05 08:23:58;;;;;;;15.70;3.17;;;;;7.20;94565.00;;;;7398936;19;20185;-86
2023/01/05 08:26:26;;;;;;;11.60;2.30;;;;;7.00;94570.00;;;;7398741;19;20181;-87
2023/01/05 08:29:00;;;;;;;10.23;2.23;;;;;7.20;94575.00;;;;7394778;19;20207;-86
2023/01/05 08:31:35;;;;;;;13.30;2.97;;;;;7.00;94582.00;;;;7395773;19;20153;-85
2023/01/05 08:34:10;;;;;;;11.20;2.07;;;;;7.00;94581.00;;;;7398540;19;20623;-86
2023/01/05 08:36:41;;;;;;;10.93;2.20;;;;;6.90;94582.00;;;;7397831;19;20171;-83
2023/01/05 08:39:10;;;;;;;9.23;2.63;;;;;7.00;94577.00;;;;7396217;19;20152;-82
2023/01/05 08:41:50;;;;;;;13.17;2.40;;;;;7.20;94582.00;;;;7396592;19;20155;-85
2023/01/05 08:44:22;;;;;;;13.23;2.63;;;;;6.90;94597.00;;;;7397929;19;20136;-85
2023/01/05 08:46:56;;;;;;;10.27;2.63;;;;;7.10;94589.00;;;;7396827;19;20153;-85
2023/01/05 08:49:24;;;;;;;16.33;2.70;;;;;7.10;94593.00;;;;7396183;19;20133;-85
2023/01/05 08:51:57;;;;;;;10.43;2.60;;;;;6.90;94598.00;;;;7396643;19;20157;-85
2023/01/05 08:54:32;;;;;;;15.83;3.07;;;;;6.90;94591.00;;;;7396979;19;20648;-81
2023/01/05 08:56:59;;;;;;;12.30;2.50;;;;;6.80;94594.00;;;;7396902;19;20133;-81
2023/01/05 08:59:27;;;;;;;18.53;2.50;;;;;6.90;94610.00;;;;7393343;19;20166;-82
2023/01/05 09:02:08;;;;;;;12.20;2.53;;;;;6.80;94614.00;;;;7393596;19;20255;-83
2023/01/05 09:04:42;;;;;;;16.50;2.77;;;;;6.90;94621.00;;;;7395867;19;20156;-81
2023/01/05 09:07:16;;;;;;;16.97;2.50;;;;;6.80;94621.00;;;;7396132;19;20161;-82
2023/01/05 09:09:44;;;;;;;21.70;2.97;;;;;6.70;94630.00;;;;7394669;19;20137;-83
2023/01/05 09:12:13;;;;;;;15.93;2.47;;;;;7.00;94626.00;;;;7396141;19;20468;-81
2023/01/05 09:14:53;;;;;;;16.70;2.73;;;;;7.20;94631.00;;;;7394656;19;20164;-81
2023/01/05 09:17:20;;;;;;;20.20;2.77;;;;;7.20;94636.00;;;;7392827;19;20141;-82
2023/01/05 09:19:48;;;;;;;14.10;2.37;;;;;7.20;94650.00;;;;7395855;19;20495;-82
2023/01/05 09:22:22;;;;;;;10.73;2.77;;;;;7.10;94656.00;;;;7393358;19;20148;-83
2023/01/05 09:24:52;;;;;;;16.30;2.90;;;;;7.30;94652.00;;;;7396796;19;20707;-81
2023/01/05 09:27:20;;;;;;;11.67;2.97;;;;;7.30;94651.00;;;;7396385;19;20129;-81
2023/01/05 09:29:53;;;;;;;11.00;2.20;;;;;7.40;94650.00;;;;7391572;19;20153;-82
2023/01/05 09:32:24;;;;;;;16.00;3.50;;;;;7.40;94650.00;;;;7394495;19;20845;-83
2023/01/05 09:34:52;;;;;;;14.23;2.50;;;;;7.50;94660.00;;;;7395702;19;20602;-82
2023/01/05 09:37:25;;;;;;;10.90;2.60;;;;;7.80;94662.00;;;;7396068;19;20133;-81
2023/01/05 09:39:53;;;;;;;9.13;2.20;;;;;7.70;94658.00;;;;7394030;19;20141;-82
2023/01/05 09:42:23;;;;;;;13.43;2.70;;;;;7.90;94658.00;;;;7396256;19;20129;-82
2023/01/05 09:45:03;;;;;;;16.60;3.00;;;;;7.80;94658.00;;;;7392102;19;20196;-85
2023/01/05 09:47:41;;;;;;;12.23;2.60;;;;;7.80;94659.00;;;;7396046;19;20213;-82
2023/01/05 09:50:22;;;;;;;17.73;2.70;;;;;7.90;94654.00;;;;7395065;19;20164;-82
2023/01/05 09:52:56;;;;;;;14.97;2.57;;;;;7.90;94650.00;;;;7395511;19;20133;-82
2023/01/05 09:55:35;;;;;;;19.57;2.80;;;;;7.90;94669.00;;;;7393085;19;20529;-82
2023/01/05 09:58:16;;;;;;;13.67;2.37;;;;;8.10;94676.00;;;;7393793;19;20212;-83
2023/01/05 10:01:16;;;;;;;11.43;2.20;;;;;8.10;94651.00;;;;7390071;19;20603;-82
2023/01/05 10:04:11;;;;;;;12.07;2.37;;;;;8.50;94660.00;;;;7389433;19;20635;-83
2023/01/05 10:06:56;;;;;;;12.90;2.23;;;;;8.30;94670.00;;;;7395311;19;20140;-82
2023/01/05 10:09:28;;;;;;;9.87;2.20;;;;;7.90;94666.00;;;;7393907;19;20607;-83
2023/01/05 10:15:12;;;;;;;8.77;1.87;;;;;8.10;94656.00;;;;7394406;19;20487;-82
2023/01/05 10:17:48;;;;;;;10.27;2.30;;;;;8.30;94655.00;;;;7396733;19;20156;-81
2023/01/05 10:20:42;;;;;;;12.53;2.63;;;;;8.50;94659.00;;;;7397208;19;20152;-81
2023/01/05 10:23:48;;;;;;;13.20;2.90;;;;;8.90;94654.00;;;;7399574;19;20124;-81
2023/01/05 10:27:02;;;;;;;15.20;2.70;;;;;8.50;94662.00;;;;7394324;19;20144;-82
2023/01/05 10:30:19;;;;;;;11.00;2.60;;;;;8.60;94657.00;;;;7391921;19;20152;-81
2023/01/05 10:32:57;;;;;;;9.03;2.03;;;;;8.70;94658.00;;;;7390950;19;20624;-80
2023/01/05 10:35:54;;;;;;;11.13;2.20;;;;;8.20;94658.00;;;;7394276;19;20144;-81
2023/01/05 10:39:32;;;;;;;13.70;2.47;;;;;8.50;94668.00;;;;7395862;19;20147;-80
2023/01/05 10:42:39;;;;;;;9.25;2.00;;;;;8.40;94658.00;;;;7396161;19;20597;-79
2023/01/05 10:45:15;;;;;;;14.13;2.57;;;;;8.00;94657.00;;;;7394019;19;20677;-80
2023/01/05 10:47:50;;;;;;;14.73;2.57;;;;;8.10;94667.00;;;;7396431;19;20595;-81
2023/01/05 10:50:44;;;;;;;9.73;2.67;;;;;7.90;94650.00;;;;7396570;19;20200;-80
2023/01/05 10:53:26;;;;;;;9.77;2.13;;;;;8.00;94653.00;;;;7394239;19;20174;-83
2023/01/05 10:56:02;;;;;;;12.20;2.63;;;;;8.10;94648.00;;;;7396953;19;20132;-79
2023/01/05 10:58:41;;;;;;;13.13;2.93;;;;;8.10;94647.00;;;;7395862;19;20128;-79
2023/01/05 11:01:27;;;;;;;11.70;2.47;;;;;8.20;94645.00;;;;7393349;19;20164;-80
2023/01/05 11:04:22;;;;;;;13.87;2.93;;;;;8.10;94658.00;;;;7391573;19;20645;-80
2023/01/05 11:07:05;;;;;;;14.77;2.50;;;;;8.40;94637.00;;;;7396541;19;20133;-80
2023/01/05 11:09:41;;;;;;;11.67;2.83;;;;;8.40;94632.00;;;;7393003;19;20148;-78
2023/01/05 11:12:18;;;;;;;15.27;2.77;;;;;8.70;94655.00;;;;7396017;19;20152;-79
2023/01/05 11:14:56;;;;;;;11.80;2.50;;;;;8.30;94656.00;;;;7396541;19;20132;-80
2023/01/05 11:17:28;;;;;;;13.30;2.90;;;;;8.50;94638.00;;;;7396916;19;20228;-79
2023/01/05 11:20:04;;;;;;;13.83;2.63;;;;;8.40;94622.00;;;;7397839;19;20161;-81
2023/01/05 11:22:42;;;;;;;14.90;3.10;;;;;8.50;94633.00;;;;7399298;19;20587;-81
2023/01/05 11:25:31;;;;;;;15.02;2.83;;;;;8.50;94633.00;;;;7403614;19;20475;-81
2023/01/05 11:28:15;;;;;;;14.00;3.03;;;;;8.30;94644.00;;;;7403140;19;20160;-80
2023/01/05 11:31:00;;;;;;;11.07;2.22;;;;;8.40;94649.00;;;;7403318;19;20140;-80
2023/01/05 11:33:32;;;;;;;11.80;2.87;;;;;8.60;94646.00;;;;7403254;19;20121;-79
2023/01/05 11:36:06;;;;;;;12.43;2.80;;;;;8.80;94655.00;;;;7403225;19;20136;-79
2023/01/05 11:38:34;;;;;;;7.50;2.57;;;;;8.40;94651.00;;;;7401753;19;20160;-79
2023/01/05 11:41:02;;;;;;;12.90;2.88;;;;;8.80;94653.00;;;;7401191;19;20132;-80
2023/01/05 11:43:36;;;;;;;16.00;2.43;;;;;8.70;94657.00;;;;7402633;19;20189;-79
2023/01/05 11:46:08;;;;;;;16.13;2.87;;;;;8.90;94652.00;;;;7402521;19;20509;-79
2023/01/05 11:48:35;;;;;;;11.05;2.50;;;;;8.90;94663.00;;;;7402206;19;20140;-79
2023/01/05 11:51:34;;;;;;;10.30;2.53;;;;;8.90;94666.00;;;;7402518;19;20626;-79
2023/01/05 11:54:02;;;;;;;7.18;2.05;;;;;8.90;94660.00;;;;7403121;19;20129;-79
2023/01/05 11:56:36;;;;;;;8.75;2.40;;;;;8.60;94658.00;;;;7398709;19;20147;-80
2023/01/05 11:59:28;;;;;;;10.85;2.53;;;;;8.10;94661.00;;;;7398992;19;20161;-78
2023/01/05 12:02:54;;;;;;;11.85;2.60;;;;;8.50;94666.00;;;;7398578;19;20183;-77
2023/01/05 12:05:53;;;;;;;11.67;2.80;;;;;8.30;94647.00;;;;7402743;19;20598;-78
2023/01/05 12:08:40;;;;;;;15.38;3.35;;;;;8.30;94660.00;;;;7397026;19;20164;-77
2023/01/05 12:11:21;;;;;;;12.87;3.07;;;;;8.20;94651.00;;;;7398782;19;20132;-79
2023/01/05 12:14:01;;;;;;;14.63;3.10;;;;;8.30;94659.00;;;;7398576;19;20152;-78
2023/01/05 12:16:54;;;;;;;13.17;2.80;;;;;8.30;94668.00;;;;7397418;19;20141;-78
2023/01/05 12:19:55;;;;;;;8.93;2.63;;;;;8.50;94661.00;;;;7397066;19;20573;-77
2023/01/05 12:22:26;;;;;;;10.03;2.90;;;;;8.40;94664.00;;;;7398817;19;20634;-78
2023/01/05 12:25:22;;;;;;;16.93;2.97;;;;;8.10;94657.00;;;;7396709;19;20225;-78
2023/01/05 12:28:32;;;;;;;18.97;4.97;;;;;8.20;94669.00;;;;7398519;19;20153;-78
2023/01/05 12:31:39;;;;;;;15.83;4.63;;;;;8.10;94664.00;;;;7395669;19;20765;-79
2023/01/05 12:34:43;;;;;;;13.60;3.03;;;;;8.30;94673.00;;;;7396631;19;20574;-80
2023/01/05 12:37:53;;;;;;;12.47;3.00;;;;;8.20;94667.00;;;;7397075;19;20139;-79
2023/01/05 12:40:47;;;;;;;11.90;4.30;;;;;8.30;94669.00;;;;7397066;19;20148;-78
2023/01/05 12:43:40;;;;;;;17.07;3.13;;;;;8.00;94666.00;;;;7398440;19;20136;-79
2023/01/05 12:46:35;;;;;;;15.30;2.77;;;;;8.10;94671.00;;;;7398871;19;20547;-79
2023/01/05 12:49:34;;;;;;;15.93;3.50;;;;;7.90;94666.00;;;;7394670;19;20164;-79
2023/01/05 12:52:17;;;;;;;15.07;3.30;;;;;7.90;94675.00;;;;7396354;19;20164;-80
2023/01/05 12:55:06;;;;;;;13.87;3.00;;;;;8.30;94676.00;;;;7396006;19;20148;-79
2023/01/05 12:57:48;;;;;;;12.73;2.80;;;;;8.00;94680.00;;;;7397662;19;20197;-79
2023/01/05 13:00:24;;;;;;;13.07;2.67;;;;;8.20;94673.00;;;;7391618;19;20161;-79
2023/01/05 13:03:10;;;;;;;12.43;2.90;;;;;8.10;94672.00;;;;7396631;19;20168;-82
2023/01/05 13:06:16;;;;;;;13.33;2.83;;;;;8.30;94674.00;;;;7396498;19;20228;-80
2023/01/05 13:08:56;;;;;;;11.97;2.90;;;;;8.30;94669.00;;;;7395273;19;20157;-79
2023/01/05 13:11:44;;;;;;;13.80;2.60;;;;;8.30;94666.00;;;;7395032;19;20161;-78
2023/01/05 13:14:26;;;;;;;21.63;4.67;;;;;8.40;94669.00;;;;7393919;19;21041;-78
2023/01/05 13:17:06;;;;;;;15.50;3.33;;;;;8.50;94666.00;;;;7394848;19;20160;-77
2023/01/05 13:19:44;;;;;;;13.53;2.67;;;;;8.20;94665.00;;;;7395052;19;20140;-77
2023/01/05 13:22:25;;;;;;;11.10;3.10;;;;;8.30;94676.00;;;;7394603;19;20488;-77
2023/01/05 13:25:11;;;;;;;11.47;2.53;;;;;8.10;94669.00;;;;7395322;19;20125;-77
2023/01/05 13:27:45;;;;;;;16.43;3.30;;;;;8.40;94667.00;;;;7394713;19;20470;-76
2023/01/05 13:30:42;;;;;;;11.73;3.20;;;;;8.30;94666.00;;;;7391386;19;20153;-77
2023/01/05 13:33:49;;;;;;;12.33;2.60;;;;;8.30;94680.00;;;;7394378;19;20587;-80
2023/01/05 13:36:31;;;;;;;15.67;3.07;;;;;8.20;94680.00;;;;7394895;19;20615;-77
2023/01/05 13:39:33;;;;;;;16.70;3.13;;;;;8.00;94682.00;;;;7394322;19;20567;-76
2023/01/05 13:42:06;;;;;;;13.83;3.00;;;;;7.90;94681.00;;;;7392585;19;20160;-78
2023/01/05 13:44:43;;;;;;;16.70;3.13;;;;;8.20;94693.00;;;;7390497;19;20132;-78
2023/01/05 13:47:17;;;;;;;11.83;3.37;;;;;8.10;94684.00;;;;7394801;19;20185;-77